sensor_id;sensor_type;location;lat;lon;timestamp;P1;durP1;ratioP1;P2;durP2;ratioP2
77872;SDS011;67068;52.116;4.440;2023-04-09T00:01:25;8.83;;;3.80;;
77872;SDS011;67068;52.116;4.440;2023-04-09T00:03:50;10.07;;;4.07;;
77872;SDS011;67068;52.116;4.440;2023-04-09T00:06:15;8.90;;;3.87;;
77872;SDS011;67068;52.116;4.440;2023-04-09T00:08:41;9.07;;;3.57;;
77872;SDS011;67068;52.116;4.440;2023-04-09T00:11:06;8.63;;;3.90;;
77872;SDS011;67068;52.116;4.440;2023-04-09T00:13:31;9.47;;;3.40;;
77872;SDS011;67068;52.116;4.440;2023-04-09T00:15:56;9.33;;;3.87;;
77872;SDS011;67068;52.116;4.440;2023-04-09T00:18:22;9.50;;;3.83;;
77872;SDS011;67068;52.116;4.440;2023-04-09T00:20:47;8.50;;;3.27;;
77872;SDS011;67068;52.116;4.440;2023-04-09T00:23:12;8.47;;;3.00;;
77872;SDS011;67068;52.116;4.440;2023-04-09T00:25:37;8.60;;;3.43;;
77872;SDS011;67068;52.116;4.440;2023-04-09T00:28:02;8.70;;;3.70;;
77872;SDS011;67068;52.116;4.440;2023-04-09T00:30:28;8.73;;;3.93;;
77872;SDS011;67068;52.116;4.440;2023-04-09T00:32:53;8.32;;;3.60;;
77872;SDS011;67068;52.116;4.440;2023-04-09T00:35:19;9.27;;;3.75;;
77872;SDS011;67068;52.116;4.440;2023-04-09T00:37:44;10.23;;;4.10;;
77872;SDS011;67068;52.116;4.440;2023-04-09T00:40:09;8.90;;;3.73;;
77872;SDS011;67068;52.116;4.440;2023-04-09T00:42:35;10.23;;;4.20;;
77872;SDS011;67068;52.116;4.440;2023-04-09T00:45:01;10.02;;;3.65;;
77872;SDS011;67068;52.116;4.440;2023-04-09T00:47:27;9.15;;;4.53;;
77872;SDS011;67068;52.116;4.440;2023-04-09T00:49:53;9.68;;;3.92;;
77872;SDS011;67068;52.116;4.440;2023-04-09T00:52:18;8.70;;;4.38;;
77872;SDS011;67068;52.116;4.440;2023-04-09T00:54:44;9.38;;;4.13;;
77872;SDS011;67068;52.116;4.440;2023-04-09T00:57:09;9.88;;;3.63;;
77872;SDS011;67068;52.116;4.440;2023-04-09T00:59:36;8.95;;;4.05;;
77872;SDS011;67068;52.116;4.440;2023-04-09T01:02:02;9.73;;;3.92;;
77872;SDS011;67068;52.116;4.440;2023-04-09T01:04:27;9.03;;;3.93;;
77872;SDS011;67068;52.116;4.440;2023-04-09T01:06:54;9.67;;;3.80;;
77872;SDS011;67068;52.116;4.440;2023-04-09T01:09:30;9.38;;;3.95;;
77872;SDS011;67068;52.116;4.440;2023-04-09T01:17:21;9.90;;;4.05;;
77872;SDS011;67068;52.116;4.440;2023-04-09T01:25:04;8.73;;;3.75;;
77872;SDS011;67068;52.116;4.440;2023-04-09T01:30:15;9.02;;;3.72;;
77872;SDS011;67068;52.116;4.440;2023-04-09T01:32:41;9.75;;;3.90;;
77872;SDS011;67068;52.116;4.440;2023-04-09T01:35:07;10.43;;;4.60;;
77872;SDS011;67068;52.116;4.440;2023-04-09T01:37:33;10.07;;;4.22;;
77872;SDS011;67068;52.116;4.440;2023-04-09T01:39:59;9.75;;;4.85;;
77872;SDS011;67068;52.116;4.440;2023-04-09T01:42:25;9.18;;;3.92;;
77872;SDS011;67068;52.116;4.440;2023-04-09T01:44:51;10.57;;;4.60;;
77872;SDS011;67068;52.116;4.440;2023-04-09T01:47:17;9.93;;;4.50;;
77872;SDS011;67068;52.116;4.440;2023-04-09T01:49:43;9.82;;;4.22;;
77872;SDS011;67068;52.116;4.440;2023-04-09T01:52:08;8.98;;;4.00;;
77872;SDS011;67068;52.116;4.440;2023-04-09T01:54:34;9.70;;;4.78;;
77872;SDS011;67068;52.116;4.440;2023-04-09T01:56:59;10.03;;;4.33;;
77872;SDS011;67068;52.116;4.440;2023-04-09T01:59:25;8.90;;;4.20;;
77872;SDS011;67068;52.116;4.440;2023-04-09T02:01:54;10.15;;;4.50;;
77872;SDS011;67068;52.116;4.440;2023-04-09T02:04:23;10.30;;;4.60;;
77872;SDS011;67068;52.116;4.440;2023-04-09T02:06:52;9.35;;;3.88;;
77872;SDS011;67068;52.116;4.440;2023-04-09T02:09:20;9.85;;;4.57;;
77872;SDS011;67068;52.116;4.440;2023-04-09T02:11:45;10.25;;;4.35;;
77872;SDS011;67068;52.116;4.440;2023-04-09T02:14:12;9.60;;;4.00;;
77872;SDS011;67068;52.116;4.440;2023-04-09T02:16:38;11.10;;;4.35;;
77872;SDS011;67068;52.116;4.440;2023-04-09T02:19:03;9.23;;;4.47;;
77872;SDS011;67068;52.116;4.440;2023-04-09T02:21:29;10.68;;;4.25;;
77872;SDS011;67068;52.116;4.440;2023-04-09T02:23:55;9.90;;;4.43;;
77872;SDS011;67068;52.116;4.440;2023-04-09T02:26:21;9.27;;;3.90;;
77872;SDS011;67068;52.116;4.440;2023-04-09T02:28:46;9.95;;;4.68;;
77872;SDS011;67068;52.116;4.440;2023-04-09T02:31:11;10.97;;;4.40;;
77872;SDS011;67068;52.116;4.440;2023-04-09T02:33:37;10.03;;;4.27;;
77872;SDS011;67068;52.116;4.440;2023-04-09T02:36:02;9.43;;;4.10;;
77872;SDS011;67068;52.116;4.440;2023-04-09T02:38:27;9.88;;;4.57;;
77872;SDS011;67068;52.116;4.440;2023-04-09T02:40:52;10.03;;;4.63;;
77872;SDS011;67068;52.116;4.440;2023-04-09T02:43:18;10.50;;;4.67;;
77872;SDS011;67068;52.116;4.440;2023-04-09T02:45:43;11.50;;;4.83;;
77872;SDS011;67068;52.116;4.440;2023-04-09T02:48:08;9.80;;;4.23;;
77872;SDS011;67068;52.116;4.440;2023-04-09T02:50:33;10.53;;;4.50;;
77872;SDS011;67068;52.116;4.440;2023-04-09T02:52:58;10.17;;;4.53;;
77872;SDS011;67068;52.116;4.440;2023-04-09T02:55:24;10.43;;;5.13;;
77872;SDS011;67068;52.116;4.440;2023-04-09T02:57:49;11.60;;;4.53;;
77872;SDS011;67068;52.116;4.440;2023-04-09T03:00:14;9.80;;;4.40;;
77872;SDS011;67068;52.116;4.440;2023-04-09T03:02:39;11.07;;;5.10;;
77872;SDS011;67068;52.116;4.440;2023-04-09T03:05:05;10.10;;;4.80;;
77872;SDS011;67068;52.116;4.440;2023-04-09T03:07:30;11.13;;;5.68;;
77872;SDS011;67068;52.116;4.440;2023-04-09T03:09:55;10.82;;;4.75;;
77872;SDS011;67068;52.116;4.440;2023-04-09T03:12:21;11.27;;;5.27;;
77872;SDS011;67068;52.116;4.440;2023-04-09T03:14:46;10.23;;;4.40;;
77872;SDS011;67068;52.116;4.440;2023-04-09T03:17:11;12.50;;;5.90;;
77872;SDS011;67068;52.116;4.440;2023-04-09T03:19:36;10.77;;;5.00;;
77872;SDS011;67068;52.116;4.440;2023-04-09T03:22:01;11.23;;;5.80;;
77872;SDS011;67068;52.116;4.440;2023-04-09T03:24:27;10.57;;;4.50;;
77872;SDS011;67068;52.116;4.440;2023-04-09T03:26:52;11.00;;;4.47;;
77872;SDS011;67068;52.116;4.440;2023-04-09T03:29:17;10.40;;;5.07;;
77872;SDS011;67068;52.116;4.440;2023-04-09T03:31:43;11.00;;;5.57;;
77872;SDS011;67068;52.116;4.440;2023-04-09T03:34:08;10.47;;;4.77;;
77872;SDS011;67068;52.116;4.440;2023-04-09T03:36:33;11.10;;;5.10;;
77872;SDS011;67068;52.116;4.440;2023-04-09T03:38:58;11.47;;;5.73;;
77872;SDS011;67068;52.116;4.440;2023-04-09T03:41:25;11.05;;;4.85;;
77872;SDS011;67068;52.116;4.440;2023-04-09T03:43:50;10.73;;;5.18;;
77872;SDS011;67068;52.116;4.440;2023-04-09T03:46:16;10.40;;;5.10;;
77872;SDS011;67068;52.116;4.440;2023-04-09T03:48:41;9.98;;;4.40;;
77872;SDS011;67068;52.116;4.440;2023-04-09T03:51:13;11.15;;;4.93;;
77872;SDS011;67068;52.116;4.440;2023-04-09T03:53:39;10.65;;;5.05;;
77872;SDS011;67068;52.116;4.440;2023-04-09T03:56:04;11.82;;;5.18;;
77872;SDS011;67068;52.116;4.440;2023-04-09T03:58:30;10.52;;;4.82;;
77872;SDS011;67068;52.116;4.440;2023-04-09T04:00:55;10.03;;;4.80;;
77872;SDS011;67068;52.116;4.440;2023-04-09T04:03:20;9.97;;;4.67;;
77872;SDS011;67068;52.116;4.440;2023-04-09T04:05:45;10.20;;;4.83;;
77872;SDS011;67068;52.116;4.440;2023-04-09T04:08:10;10.33;;;4.77;;
77872;SDS011;67068;52.116;4.440;2023-04-09T04:10:36;10.63;;;4.80;;
77872;SDS011;67068;52.116;4.440;2023-04-09T04:13:01;10.80;;;5.23;;
77872;SDS011;67068;52.116;4.440;2023-04-09T04:15:27;10.38;;;4.90;;
77872;SDS011;67068;52.116;4.440;2023-04-09T04:17:52;10.38;;;4.35;;
77872;SDS011;67068;52.116;4.440;2023-04-09T04:20:17;11.00;;;4.60;;
77872;SDS011;67068;52.116;4.440;2023-04-09T04:22:43;10.10;;;4.55;;
77872;SDS011;67068;52.116;4.440;2023-04-09T04:25:08;9.43;;;4.20;;
77872;SDS011;67068;52.116;4.440;2023-04-09T04:27:33;10.65;;;4.68;;
77872;SDS011;67068;52.116;4.440;2023-04-09T04:29:58;10.53;;;4.50;;
77872;SDS011;67068;52.116;4.440;2023-04-09T04:32:25;10.48;;;4.82;;
77872;SDS011;67068;52.116;4.440;2023-04-09T04:34:51;10.38;;;5.05;;
77872;SDS011;67068;52.116;4.440;2023-04-09T04:37:16;11.03;;;5.27;;
77872;SDS011;67068;52.116;4.440;2023-04-09T04:39:41;10.40;;;5.07;;
77872;SDS011;67068;52.116;4.440;2023-04-09T04:42:07;11.00;;;4.33;;
77872;SDS011;67068;52.116;4.440;2023-04-09T04:44:33;10.73;;;4.50;;
77872;SDS011;67068;52.116;4.440;2023-04-09T04:46:58;11.40;;;5.30;;
77872;SDS011;67068;52.116;4.440;2023-04-09T04:49:23;10.20;;;4.83;;
77872;SDS011;67068;52.116;4.440;2023-04-09T04:51:48;10.23;;;5.00;;
77872;SDS011;67068;52.116;4.440;2023-04-09T04:54:14;10.80;;;5.23;;
77872;SDS011;67068;52.116;4.440;2023-04-09T04:56:39;10.97;;;4.90;;
77872;SDS011;67068;52.116;4.440;2023-04-09T04:59:04;9.90;;;4.90;;
77872;SDS011;67068;52.116;4.440;2023-04-09T05:01:30;10.97;;;5.10;;
77872;SDS011;67068;52.116;4.440;2023-04-09T05:03:55;10.38;;;4.75;;
77872;SDS011;67068;52.116;4.440;2023-04-09T05:06:20;11.18;;;4.78;;
77872;SDS011;67068;52.116;4.440;2023-04-09T05:08:46;10.73;;;5.77;;
77872;SDS011;67068;52.116;4.440;2023-04-09T05:11:11;11.30;;;5.80;;
77872;SDS011;67068;52.116;4.440;2023-04-09T05:13:36;10.82;;;5.25;;
77872;SDS011;67068;52.116;4.440;2023-04-09T05:16:02;11.87;;;5.03;;
77872;SDS011;67068;52.116;4.440;2023-04-09T05:18:27;12.32;;;5.35;;
77872;SDS011;67068;52.116;4.440;2023-04-09T05:20:53;11.07;;;5.20;;
77872;SDS011;67068;52.116;4.440;2023-04-09T05:23:18;10.13;;;5.10;;
77872;SDS011;67068;52.116;4.440;2023-04-09T05:25:43;11.37;;;5.87;;
77872;SDS011;67068;52.116;4.440;2023-04-09T05:28:08;11.25;;;4.95;;
77872;SDS011;67068;52.116;4.440;2023-04-09T05:30:35;10.43;;;5.05;;
77872;SDS011;67068;52.116;4.440;2023-04-09T05:33:00;11.13;;;5.27;;
77872;SDS011;67068;52.116;4.440;2023-04-09T05:35:25;11.53;;;5.43;;
77872;SDS011;67068;52.116;4.440;2023-04-09T05:37:51;11.17;;;5.40;;
77872;SDS011;67068;52.116;4.440;2023-04-09T05:40:16;10.37;;;4.90;;
77872;SDS011;67068;52.116;4.440;2023-04-09T05:42:41;11.30;;;5.50;;
77872;SDS011;67068;52.116;4.440;2023-04-09T05:45:06;9.87;;;4.67;;
77872;SDS011;67068;52.116;4.440;2023-04-09T05:47:32;11.80;;;6.03;;
77872;SDS011;67068;52.116;4.440;2023-04-09T05:49:57;11.43;;;5.03;;
77872;SDS011;67068;52.116;4.440;2023-04-09T05:52:22;11.57;;;5.00;;
77872;SDS011;67068;52.116;4.440;2023-04-09T05:54:48;10.87;;;5.70;;
77872;SDS011;67068;52.116;4.440;2023-04-09T05:57:13;12.07;;;5.10;;
77872;SDS011;67068;52.116;4.440;2023-04-09T05:59:38;10.55;;;5.00;;
77872;SDS011;67068;52.116;4.440;2023-04-09T06:02:04;11.47;;;5.33;;
77872;SDS011;67068;52.116;4.440;2023-04-09T06:04:29;11.77;;;5.93;;
77872;SDS011;67068;52.116;4.440;2023-04-09T06:06:54;11.20;;;5.23;;
77872;SDS011;67068;52.116;4.440;2023-04-09T06:09:24;10.77;;;5.15;;
77872;SDS011;67068;52.116;4.440;2023-04-09T06:11:49;10.95;;;4.75;;
77872;SDS011;67068;52.116;4.440;2023-04-09T06:14:14;11.27;;;5.55;;
77872;SDS011;67068;52.116;4.440;2023-04-09T06:16:42;10.63;;;5.40;;
77872;SDS011;67068;52.116;4.440;2023-04-09T06:19:07;10.77;;;5.13;;
77872;SDS011;67068;52.116;4.440;2023-04-09T06:21:32;10.80;;;5.50;;
77872;SDS011;67068;52.116;4.440;2023-04-09T06:23:57;10.77;;;5.27;;
77872;SDS011;67068;52.116;4.440;2023-04-09T06:26:22;10.50;;;5.20;;
77872;SDS011;67068;52.116;4.440;2023-04-09T06:28:48;11.50;;;5.40;;
77872;SDS011;67068;52.116;4.440;2023-04-09T06:31:13;10.97;;;5.20;;
77872;SDS011;67068;52.116;4.440;2023-04-09T06:33:38;10.97;;;5.07;;
77872;SDS011;67068;52.116;4.440;2023-04-09T06:36:04;10.10;;;5.03;;
77872;SDS011;67068;52.116;4.440;2023-04-09T06:38:29;11.95;;;5.85;;
77872;SDS011;67068;52.116;4.440;2023-04-09T06:40:54;11.50;;;5.67;;
77872;SDS011;67068;52.116;4.440;2023-04-09T06:43:20;11.07;;;5.03;;
77872;SDS011;67068;52.116;4.440;2023-04-09T06:45:45;11.63;;;5.40;;
77872;SDS011;67068;52.116;4.440;2023-04-09T06:48:11;11.43;;;5.55;;
77872;SDS011;67068;52.116;4.440;2023-04-09T06:50:36;12.60;;;5.03;;
77872;SDS011;67068;52.116;4.440;2023-04-09T06:53:01;10.33;;;5.40;;
77872;SDS011;67068;52.116;4.440;2023-04-09T06:55:27;11.73;;;5.60;;
77872;SDS011;67068;52.116;4.440;2023-04-09T06:57:53;11.52;;;5.82;;
77872;SDS011;67068;52.116;4.440;2023-04-09T07:00:18;11.30;;;5.97;;
77872;SDS011;67068;52.116;4.440;2023-04-09T07:02:43;11.03;;;5.27;;
77872;SDS011;67068;52.116;4.440;2023-04-09T07:05:08;11.83;;;6.33;;
77872;SDS011;67068;52.116;4.440;2023-04-09T07:07:34;11.13;;;5.00;;
77872;SDS011;67068;52.116;4.440;2023-04-09T07:09:59;11.40;;;4.90;;
77872;SDS011;67068;52.116;4.440;2023-04-09T07:12:29;11.70;;;5.53;;
77872;SDS011;67068;52.116;4.440;2023-04-09T07:14:57;10.65;;;4.93;;
77872;SDS011;67068;52.116;4.440;2023-04-09T07:17:23;11.10;;;5.28;;
77872;SDS011;67068;52.116;4.440;2023-04-09T07:19:48;11.20;;;5.53;;
77872;SDS011;67068;52.116;4.440;2023-04-09T07:22:15;11.60;;;5.22;;
77872;SDS011;67068;52.116;4.440;2023-04-09T07:24:40;12.27;;;5.23;;
77872;SDS011;67068;52.116;4.440;2023-04-09T07:27:06;11.63;;;5.22;;
77872;SDS011;67068;52.116;4.440;2023-04-09T07:29:31;11.23;;;5.40;;
77872;SDS011;67068;52.116;4.440;2023-04-09T07:31:57;11.50;;;5.63;;
77872;SDS011;67068;52.116;4.440;2023-04-09T07:34:22;11.57;;;5.35;;
77872;SDS011;67068;52.116;4.440;2023-04-09T07:36:47;11.30;;;5.40;;
77872;SDS011;67068;52.116;4.440;2023-04-09T07:39:12;11.30;;;5.47;;
77872;SDS011;67068;52.116;4.440;2023-04-09T07:41:38;10.77;;;5.50;;
77872;SDS011;67068;52.116;4.440;2023-04-09T07:44:03;11.37;;;5.40;;
77872;SDS011;67068;52.116;4.440;2023-04-09T07:46:30;11.70;;;5.88;;
77872;SDS011;67068;52.116;4.440;2023-04-09T07:48:55;10.97;;;5.20;;
77872;SDS011;67068;52.116;4.440;2023-04-09T07:51:20;12.00;;;5.70;;
77872;SDS011;67068;52.116;4.440;2023-04-09T07:53:46;11.45;;;4.95;;
77872;SDS011;67068;52.116;4.440;2023-04-09T07:56:11;10.07;;;4.70;;
77872;SDS011;67068;52.116;4.440;2023-04-09T07:58:36;11.70;;;5.73;;
77872;SDS011;67068;52.116;4.440;2023-04-09T08:01:04;11.27;;;5.57;;
77872;SDS011;67068;52.116;4.440;2023-04-09T08:03:29;11.90;;;6.03;;
77872;SDS011;67068;52.116;4.440;2023-04-09T08:05:55;12.13;;;5.60;;
77872;SDS011;67068;52.116;4.440;2023-04-09T08:08:20;11.88;;;5.07;;
77872;SDS011;67068;52.116;4.440;2023-04-09T08:10:46;11.35;;;5.43;;
77872;SDS011;67068;52.116;4.440;2023-04-09T08:13:11;13.45;;;6.18;;
77872;SDS011;67068;52.116;4.440;2023-04-09T08:15:37;12.10;;;5.10;;
77872;SDS011;67068;52.116;4.440;2023-04-09T08:18:02;13.73;;;6.35;;
77872;SDS011;67068;52.116;4.440;2023-04-09T08:20:28;12.52;;;6.47;;
77872;SDS011;67068;52.116;4.440;2023-04-09T08:22:53;13.07;;;6.60;;
77872;SDS011;67068;52.116;4.440;2023-04-09T08:25:18;14.03;;;6.30;;
77872;SDS011;67068;52.116;4.440;2023-04-09T08:27:43;13.57;;;7.03;;
77872;SDS011;67068;52.116;4.440;2023-04-09T08:30:09;12.27;;;5.88;;
77872;SDS011;67068;52.116;4.440;2023-04-09T08:32:35;13.30;;;6.28;;
77872;SDS011;67068;52.116;4.440;2023-04-09T08:35:00;14.60;;;6.87;;
77872;SDS011;67068;52.116;4.440;2023-04-09T08:37:25;13.93;;;7.03;;
77872;SDS011;67068;52.116;4.440;2023-04-09T08:39:50;14.00;;;6.68;;
77872;SDS011;67068;52.116;4.440;2023-04-09T08:42:16;13.67;;;6.83;;
77872;SDS011;67068;52.116;4.440;2023-04-09T08:44:41;14.82;;;7.30;;
77872;SDS011;67068;52.116;4.440;2023-04-09T08:47:07;13.63;;;6.75;;
77872;SDS011;67068;52.116;4.440;2023-04-09T08:49:35;14.93;;;7.10;;
77872;SDS011;67068;52.116;4.440;2023-04-09T08:52:00;14.63;;;6.57;;
77872;SDS011;67068;52.116;4.440;2023-04-09T08:54:25;14.63;;;6.43;;
77872;SDS011;67068;52.116;4.440;2023-04-09T08:56:51;14.10;;;7.33;;
77872;SDS011;67068;52.116;4.440;2023-04-09T08:59:16;15.40;;;6.77;;
77872;SDS011;67068;52.116;4.440;2023-04-09T09:01:44;14.10;;;7.53;;
77872;SDS011;67068;52.116;4.440;2023-04-09T09:04:11;15.45;;;7.60;;
77872;SDS011;67068;52.116;4.440;2023-04-09T09:06:37;14.90;;;6.75;;
77872;SDS011;67068;52.116;4.440;2023-04-09T09:11:28;14.85;;;7.00;;
77872;SDS011;67068;52.116;4.440;2023-04-09T09:13:57;16.45;;;7.88;;
77872;SDS011;67068;52.116;4.440;2023-04-09T09:16:23;17.52;;;8.52;;
77872;SDS011;67068;52.116;4.440;2023-04-09T09:18:48;18.23;;;8.32;;
77872;SDS011;67068;52.116;4.440;2023-04-09T09:21:14;16.60;;;8.53;;
77872;SDS011;67068;52.116;4.440;2023-04-09T09:23:40;16.52;;;8.52;;
77872;SDS011;67068;52.116;4.440;2023-04-09T09:26:13;16.85;;;8.10;;
77872;SDS011;67068;52.116;4.440;2023-04-09T09:28:38;16.60;;;7.97;;
77872;SDS011;67068;52.116;4.440;2023-04-09T09:31:07;17.93;;;8.40;;
77872;SDS011;67068;52.116;4.440;2023-04-09T09:33:33;18.92;;;8.68;;
77872;SDS011;67068;52.116;4.440;2023-04-09T09:35:58;20.40;;;8.80;;
77872;SDS011;67068;52.116;4.440;2023-04-09T09:38:23;18.43;;;8.93;;
77872;SDS011;67068;52.116;4.440;2023-04-09T09:40:49;19.73;;;9.15;;
77872;SDS011;67068;52.116;4.440;2023-04-09T09:43:14;17.53;;;8.63;;
77872;SDS011;67068;52.116;4.440;2023-04-09T09:45:39;18.98;;;8.88;;
77872;SDS011;67068;52.116;4.440;2023-04-09T09:48:05;18.25;;;8.93;;
77872;SDS011;67068;52.116;4.440;2023-04-09T09:50:31;18.58;;;8.65;;
77872;SDS011;67068;52.116;4.440;2023-04-09T09:53:05;17.98;;;8.75;;
77872;SDS011;67068;52.116;4.440;2023-04-09T09:55:31;16.95;;;9.00;;
77872;SDS011;67068;52.116;4.440;2023-04-09T09:57:57;18.02;;;9.13;;
77872;SDS011;67068;52.116;4.440;2023-04-09T10:00:23;19.17;;;10.35;;
77872;SDS011;67068;52.116;4.440;2023-04-09T10:02:55;18.58;;;9.05;;
77872;SDS011;67068;52.116;4.440;2023-04-09T10:05:20;16.08;;;8.88;;
77872;SDS011;67068;52.116;4.440;2023-04-09T10:07:48;17.65;;;8.77;;
77872;SDS011;67068;52.116;4.440;2023-04-09T10:10:14;19.23;;;9.80;;
77872;SDS011;67068;52.116;4.440;2023-04-09T10:12:40;20.25;;;9.77;;
77872;SDS011;67068;52.116;4.440;2023-04-09T10:15:06;19.17;;;10.25;;
77872;SDS011;67068;52.116;4.440;2023-04-09T10:17:31;18.55;;;8.93;;
77872;SDS011;67068;52.116;4.440;2023-04-09T10:20:00;17.93;;;9.40;;
77872;SDS011;67068;52.116;4.440;2023-04-09T10:22:28;17.90;;;9.23;;
77872;SDS011;67068;52.116;4.440;2023-04-09T10:24:56;18.33;;;9.85;;
77872;SDS011;67068;52.116;4.440;2023-04-09T10:27:22;18.08;;;9.68;;
77872;SDS011;67068;52.116;4.440;2023-04-09T10:29:47;18.70;;;9.17;;
77872;SDS011;67068;52.116;4.440;2023-04-09T10:32:20;18.15;;;9.40;;
77872;SDS011;67068;52.116;4.440;2023-04-09T10:34:45;18.35;;;7.95;;
77872;SDS011;67068;52.116;4.440;2023-04-09T10:37:14;20.17;;;10.85;;
77872;SDS011;67068;52.116;4.440;2023-04-09T10:39:44;18.35;;;10.60;;
77872;SDS011;67068;52.116;4.440;2023-04-09T10:42:20;18.98;;;9.90;;
77872;SDS011;67068;52.116;4.440;2023-04-09T10:45:02;19.67;;;9.38;;
77872;SDS011;67068;52.116;4.440;2023-04-09T10:47:32;20.45;;;10.27;;
77872;SDS011;67068;52.116;4.440;2023-04-09T10:50:19;19.13;;;9.27;;
77872;SDS011;67068;52.116;4.440;2023-04-09T10:52:46;19.00;;;10.45;;
77872;SDS011;67068;52.116;4.440;2023-04-09T10:57:56;18.90;;;10.02;;
77872;SDS011;67068;52.116;4.440;2023-04-09T11:00:21;19.45;;;10.05;;
77872;SDS011;67068;52.116;4.440;2023-04-09T11:05:30;18.48;;;9.38;;
77872;SDS011;67068;52.116;4.440;2023-04-09T11:10:24;18.65;;;9.70;;
77872;SDS011;67068;52.116;4.440;2023-04-09T11:12:49;17.87;;;9.77;;
77872;SDS011;67068;52.116;4.440;2023-04-09T11:15:18;17.07;;;9.13;;
77872;SDS011;67068;52.116;4.440;2023-04-09T11:17:44;19.63;;;10.35;;
77872;SDS011;67068;52.116;4.440;2023-04-09T11:20:10;19.05;;;10.18;;
77872;SDS011;67068;52.116;4.440;2023-04-09T11:22:35;19.92;;;10.05;;
77872;SDS011;67068;52.116;4.440;2023-04-09T11:25:01;20.02;;;10.38;;
77872;SDS011;67068;52.116;4.440;2023-04-09T11:27:26;20.48;;;10.57;;
77872;SDS011;67068;52.116;4.440;2023-04-09T11:29:55;20.23;;;10.27;;
77872;SDS011;67068;52.116;4.440;2023-04-09T11:32:20;18.92;;;10.90;;
77872;SDS011;67068;52.116;4.440;2023-04-09T11:34:45;19.50;;;10.27;;
77872;SDS011;67068;52.116;4.440;2023-04-09T11:37:14;19.83;;;10.17;;
77872;SDS011;67068;52.116;4.440;2023-04-09T11:39:42;21.85;;;11.13;;
77872;SDS011;67068;52.116;4.440;2023-04-09T11:42:12;21.67;;;10.93;;
77872;SDS011;67068;52.116;4.440;2023-04-09T11:44:37;20.30;;;11.18;;
77872;SDS011;67068;52.116;4.440;2023-04-09T11:47:02;19.73;;;11.17;;
77872;SDS011;67068;52.116;4.440;2023-04-09T11:49:28;22.27;;;11.45;;
77872;SDS011;67068;52.116;4.440;2023-04-09T11:51:54;21.67;;;12.20;;
77872;SDS011;67068;52.116;4.440;2023-04-09T11:54:19;21.90;;;12.83;;
77872;SDS011;67068;52.116;4.440;2023-04-09T11:56:44;21.83;;;12.45;;
77872;SDS011;67068;52.116;4.440;2023-04-09T11:59:12;22.00;;;12.10;;
77872;SDS011;67068;52.116;4.440;2023-04-09T12:01:38;23.20;;;13.18;;
77872;SDS011;67068;52.116;4.440;2023-04-09T12:04:03;22.33;;;13.60;;
77872;SDS011;67068;52.116;4.440;2023-04-09T12:06:29;21.23;;;12.15;;
77872;SDS011;67068;52.116;4.440;2023-04-09T12:08:56;21.08;;;12.15;;
77872;SDS011;67068;52.116;4.440;2023-04-09T12:11:28;23.95;;;13.25;;
77872;SDS011;67068;52.116;4.440;2023-04-09T12:14:01;22.02;;;12.27;;
77872;SDS011;67068;52.116;4.440;2023-04-09T12:16:36;21.67;;;11.80;;
77872;SDS011;67068;52.116;4.440;2023-04-09T12:21:43;21.77;;;12.83;;
77872;SDS011;67068;52.116;4.440;2023-04-09T12:24:08;20.15;;;11.95;;
77872;SDS011;67068;52.116;4.440;2023-04-09T12:26:34;22.83;;;12.43;;
77872;SDS011;67068;52.116;4.440;2023-04-09T12:28:59;21.23;;;11.37;;
77872;SDS011;67068;52.116;4.440;2023-04-09T12:31:24;21.63;;;11.97;;
77872;SDS011;67068;52.116;4.440;2023-04-09T12:33:49;20.83;;;12.13;;
77872;SDS011;67068;52.116;4.440;2023-04-09T12:36:15;20.42;;;11.07;;
77872;SDS011;67068;52.116;4.440;2023-04-09T12:38:40;19.97;;;11.57;;
77872;SDS011;67068;52.116;4.440;2023-04-09T12:41:05;20.43;;;13.37;;
77872;SDS011;67068;52.116;4.440;2023-04-09T12:43:30;19.50;;;11.40;;
77872;SDS011;67068;52.116;4.440;2023-04-09T12:45:56;19.17;;;11.23;;
77872;SDS011;67068;52.116;4.440;2023-04-09T12:48:21;20.85;;;11.88;;
77872;SDS011;67068;52.116;4.440;2023-04-09T12:50:47;19.80;;;12.53;;
77872;SDS011;67068;52.116;4.440;2023-04-09T12:53:12;19.13;;;11.57;;
77872;SDS011;67068;52.116;4.440;2023-04-09T12:55:37;18.67;;;10.93;;
77872;SDS011;67068;52.116;4.440;2023-04-09T12:58:03;19.57;;;11.30;;
77872;SDS011;67068;52.116;4.440;2023-04-09T13:00:28;18.42;;;10.55;;
77872;SDS011;67068;52.116;4.440;2023-04-09T13:02:55;17.88;;;10.70;;
77872;SDS011;67068;52.116;4.440;2023-04-09T13:05:20;19.58;;;11.45;;
77872;SDS011;67068;52.116;4.440;2023-04-09T13:07:45;19.42;;;11.00;;
77872;SDS011;67068;52.116;4.440;2023-04-09T13:10:11;18.50;;;11.27;;
77872;SDS011;67068;52.116;4.440;2023-04-09T13:12:36;17.67;;;10.57;;
77872;SDS011;67068;52.116;4.440;2023-04-09T13:15:01;18.93;;;10.63;;
77872;SDS011;67068;52.116;4.440;2023-04-09T13:17:27;18.58;;;11.05;;
77872;SDS011;67068;52.116;4.440;2023-04-09T13:19:53;17.80;;;10.83;;
77872;SDS011;67068;52.116;4.440;2023-04-09T13:22:18;18.93;;;12.10;;
77872;SDS011;67068;52.116;4.440;2023-04-09T13:24:43;17.60;;;10.80;;
77872;SDS011;67068;52.116;4.440;2023-04-09T13:27:09;18.27;;;10.30;;
77872;SDS011;67068;52.116;4.440;2023-04-09T13:29:35;17.10;;;9.85;;
77872;SDS011;67068;52.116;4.440;2023-04-09T13:32:00;18.45;;;10.68;;
77872;SDS011;67068;52.116;4.440;2023-04-09T13:34:31;17.73;;;10.18;;
77872;SDS011;67068;52.116;4.440;2023-04-09T13:36:56;16.88;;;10.95;;
77872;SDS011;67068;52.116;4.440;2023-04-09T13:39:21;19.07;;;10.50;;
77872;SDS011;67068;52.116;4.440;2023-04-09T13:41:46;18.03;;;11.27;;
77872;SDS011;67068;52.116;4.440;2023-04-09T13:44:12;17.47;;;9.77;;
77872;SDS011;67068;52.116;4.440;2023-04-09T13:46:37;16.87;;;9.83;;
77872;SDS011;67068;52.116;4.440;2023-04-09T13:49:02;15.77;;;8.90;;
77872;SDS011;67068;52.116;4.440;2023-04-09T13:51:27;17.10;;;10.17;;
77872;SDS011;67068;52.116;4.440;2023-04-09T13:56:21;17.00;;;9.10;;
77872;SDS011;67068;52.116;4.440;2023-04-09T13:58:47;15.93;;;9.30;;
77872;SDS011;67068;52.116;4.440;2023-04-09T14:01:12;15.82;;;9.60;;
77872;SDS011;67068;52.116;4.440;2023-04-09T14:03:38;16.50;;;10.02;;
77872;SDS011;67068;52.116;4.440;2023-04-09T14:06:04;16.25;;;9.65;;
77872;SDS011;67068;52.116;4.440;2023-04-09T14:08:29;15.88;;;9.82;;
77872;SDS011;67068;52.116;4.440;2023-04-09T14:10:55;16.23;;;8.93;;
77872;SDS011;67068;52.116;4.440;2023-04-09T14:13:20;17.48;;;9.45;;
77872;SDS011;67068;52.116;4.440;2023-04-09T14:15:46;15.97;;;9.83;;
77872;SDS011;67068;52.116;4.440;2023-04-09T14:18:11;15.33;;;8.53;;
77872;SDS011;67068;52.116;4.440;2023-04-09T14:20:36;16.23;;;9.47;;
77872;SDS011;67068;52.116;4.440;2023-04-09T14:23:02;15.82;;;9.32;;
77872;SDS011;67068;52.116;4.440;2023-04-09T14:25:27;14.98;;;8.82;;
77872;SDS011;67068;52.116;4.440;2023-04-09T14:27:53;16.47;;;9.33;;
77872;SDS011;67068;52.116;4.440;2023-04-09T14:30:18;16.67;;;9.30;;
77872;SDS011;67068;52.116;4.440;2023-04-09T14:32:43;15.83;;;8.43;;
77872;SDS011;67068;52.116;4.440;2023-04-09T14:35:08;16.03;;;9.00;;
77872;SDS011;67068;52.116;4.440;2023-04-09T14:37:34;15.90;;;8.57;;
77872;SDS011;67068;52.116;4.440;2023-04-09T14:39:59;17.67;;;9.10;;
77872;SDS011;67068;52.116;4.440;2023-04-09T14:42:24;16.60;;;9.48;;
77872;SDS011;67068;52.116;4.440;2023-04-09T14:44:50;15.50;;;8.93;;
77872;SDS011;67068;52.116;4.440;2023-04-09T14:47:15;15.13;;;8.73;;
77872;SDS011;67068;52.116;4.440;2023-04-09T14:49:40;17.97;;;9.93;;
77872;SDS011;67068;52.116;4.440;2023-04-09T14:52:05;16.33;;;8.85;;
77872;SDS011;67068;52.116;4.440;2023-04-09T14:54:31;17.67;;;9.80;;